sensor_id;sensor_type;location;lat;lon;timestamp;temperature;humidity
26907;DHT22;14472;56.880;16.658;2023-08-30T00:00:13;17.60;99.90
26907;DHT22;14472;56.880;16.658;2023-08-30T00:02:39;17.50;99.90
26907;DHT22;14472;56.880;16.658;2023-08-30T00:05:05;17.50;99.90
26907;DHT22;14472;56.880;16.658;2023-08-30T00:07:31;17.50;99.90
26907;DHT22;14472;56.880;16.658;2023-08-30T00:09:58;17.60;99.90
26907;DHT22;14472;56.880;16.658;2023-08-30T00:12:24;17.60;99.90
26907;DHT22;14472;56.880;16.658;2023-08-30T00:14:50;17.50;99.90
26907;DHT22;14472;56.880;16.658;2023-08-30T00:17:16;17.50;99.90
26907;DHT22;14472;56.880;16.658;2023-08-30T00:19:42;17.50;99.90
26907;DHT22;14472;56.880;16.658;2023-08-30T00:22:08;17.50;99.90
26907;DHT22;14472;56.880;16.658;2023-08-30T00:24:34;17.50;99.90
26907;DHT22;14472;56.880;16.658;2023-08-30T00:27:01;17.50;99.90
26907;DHT22;14472;56.880;16.658;2023-08-30T00:29:28;17.50;99.90
26907;DHT22;14472;56.880;16.658;2023-08-30T00:31:54;17.50;99.90
26907;DHT22;14472;56.880;16.658;2023-08-30T00:34:19;17.50;99.90
26907;DHT22;14472;56.880;16.658;2023-08-30T00:36:45;17.50;99.90
26907;DHT22;14472;56.880;16.658;2023-08-30T00:39:11;17.50;99.90
26907;DHT22;14472;56.880;16.658;2023-08-30T00:41:36;17.50;99.90
26907;DHT22;14472;56.880;16.658;2023-08-30T00:44:02;17.50;99.90
26907;DHT22;14472;56.880;16.658;2023-08-30T00:46:29;17.50;99.90
26907;DHT22;14472;56.880;16.658;2023-08-30T00:48:56;17.50;99.90
26907;DHT22;14472;56.880;16.658;2023-08-30T00:51:22;17.40;99.90
26907;DHT22;14472;56.880;16.658;2023-08-30T00:53:48;17.40;99.90
26907;DHT22;14472;56.880;16.658;2023-08-30T00:56:15;17.40;99.90
26907;DHT22;14472;56.880;16.658;2023-08-30T00:58:41;17.30;99.90
26907;DHT22;14472;56.880;16.658;2023-08-30T01:01:07;17.30;99.90
26907;DHT22;14472;56.880;16.658;2023-08-30T01:03:34;17.30;99.90
26907;DHT22;14472;56.880;16.658;2023-08-30T01:06:00;17.20;99.90
26907;DHT22;14472;56.880;16.658;2023-08-30T01:08:26;17.20;99.90
26907;DHT22;14472;56.880;16.658;2023-08-30T01:11:13;17.20;99.90
26907;DHT22;14472;56.880;16.658;2023-08-30T01:13:50;17.20;99.90
26907;DHT22;14472;56.880;16.658;2023-08-30T01:16:17;17.20;99.90
26907;DHT22;14472;56.880;16.658;2023-08-30T01:18:46;17.10;99.90
26907;DHT22;14472;56.880;16.658;2023-08-30T01:21:37;17.20;99.90
26907;DHT22;14472;56.880;16.658;2023-08-30T01:24:11;17.10;99.90
26907;DHT22;14472;56.880;16.658;2023-08-30T01:29:40;17.10;99.90
26907;DHT22;14472;56.880;16.658;2023-08-30T01:32:09;17.10;99.90
26907;DHT22;14472;56.880;16.658;2023-08-30T01:34:37;17.10;99.90
26907;DHT22;14472;56.880;16.658;2023-08-30T01:37:07;17.20;99.90
26907;DHT22;14472;56.880;16.658;2023-08-30T01:39:38;17.20;99.90
26907;DHT22;14472;56.880;16.658;2023-08-30T01:42:06;17.20;99.90
26907;DHT22;14472;56.880;16.658;2023-08-30T01:44:33;17.20;99.90
26907;DHT22;14472;56.880;16.658;2023-08-30T01:47:00;17.20;99.90
26907;DHT22;14472;56.880;16.658;2023-08-30T01:49:28;17.20;99.90
26907;DHT22;14472;56.880;16.658;2023-08-30T01:51:54;17.20;99.90
26907;DHT22;14472;56.880;16.658;2023-08-30T01:54:21;17.20;99.90
26907;DHT22;14472;56.880;16.658;2023-08-30T01:56:47;17.20;99.90
26907;DHT22;14472;56.880;16.658;2023-08-30T01:59:13;17.10;99.90
26907;DHT22;14472;56.880;16.658;2023-08-30T02:01:38;17.10;99.90
26907;DHT22;14472;56.880;16.658;2023-08-30T02:04:04;17.10;99.90
26907;DHT22;14472;56.880;16.658;2023-08-30T02:06:42;17.10;99.90
26907;DHT22;14472;56.880;16.658;2023-08-30T02:09:19;17.00;99.90
26907;DHT22;14472;56.880;16.658;2023-08-30T02:11:47;17.00;99.90
26907;DHT22;14472;56.880;16.658;2023-08-30T02:14:15;17.00;99.90
26907;DHT22;14472;56.880;16.658;2023-08-30T02:16:45;17.00;99.90
26907;DHT22;14472;56.880;16.658;2023-08-30T02:19:11;17.00;99.90
26907;DHT22;14472;56.880;16.658;2023-08-30T02:21:39;17.00;99.90
26907;DHT22;14472;56.880;16.658;2023-08-30T02:24:05;16.90;99.90
26907;DHT22;14472;56.880;16.658;2023-08-30T02:26:31;17.00;99.90
26907;DHT22;14472;56.880;16.658;2023-08-30T02:28:56;17.00;99.90
26907;DHT22;14472;56.880;16.658;2023-08-30T02:31:22;16.90;99.90
26907;DHT22;14472;56.880;16.658;2023-08-30T02:33:48;16.90;99.90
26907;DHT22;14472;56.880;16.658;2023-08-30T02:36:13;16.90;99.90
26907;DHT22;14472;56.880;16.658;2023-08-30T02:38:39;16.90;99.90
26907;DHT22;14472;56.880;16.658;2023-08-30T02:41:05;16.90;99.90
26907;DHT22;14472;56.880;16.658;2023-08-30T02:43:30;16.90;99.90
26907;DHT22;14472;56.880;16.658;2023-08-30T02:45:56;16.90;99.90
26907;DHT22;14472;56.880;16.658;2023-08-30T02:48:22;16.90;99.90
26907;DHT22;14472;56.880;16.658;2023-08-30T02:50:47;16.90;99.90
26907;DHT22;14472;56.880;16.658;2023-08-30T02:53:13;16.90;99.90
26907;DHT22;14472;56.880;16.658;2023-08-30T02:55:39;16.90;99.90
26907;DHT22;14472;56.880;16.658;2023-08-30T02:58:04;16.90;99.90
26907;DHT22;14472;56.880;16.658;2023-08-30T03:00:30;17.00;99.90
26907;DHT22;14472;56.880;16.658;2023-08-30T03:02:56;16.90;99.90
26907;DHT22;14472;56.880;16.658;2023-08-30T03:05:21;17.00;99.90
26907;DHT22;14472;56.880;16.658;2023-08-30T03:07:47;16.90;99.90
26907;DHT22;14472;56.880;16.658;2023-08-30T03:10:13;16.90;99.90
26907;DHT22;14472;56.880;16.658;2023-08-30T03:12:38;17.00;99.90
26907;DHT22;14472;56.880;16.658;2023-08-30T03:15:05;17.00;99.90
26907;DHT22;14472;56.880;16.658;2023-08-30T03:17:30;17.00;99.90
26907;DHT22;14472;56.880;16.658;2023-08-30T03:19:56;17.00;99.90
26907;DHT22;14472;56.880;16.658;2023-08-30T03:22:22;17.00;99.90
26907;DHT22;14472;56.880;16.658;2023-08-30T03:24:48;17.00;99.90
26907;DHT22;14472;56.880;16.658;2023-08-30T03:27:16;17.00;99.90
26907;DHT22;14472;56.880;16.658;2023-08-30T03:29:42;17.00;99.90
26907;DHT22;14472;56.880;16.658;2023-08-30T03:32:07;17.00;99.90
26907;DHT22;14472;56.880;16.658;2023-08-30T03:34:33;17.00;99.90
26907;DHT22;14472;56.880;16.658;2023-08-30T03:36:59;17.00;99.90
26907;DHT22;14472;56.880;16.658;2023-08-30T03:39:25;17.00;99.90
26907;DHT22;14472;56.880;16.658;2023-08-30T03:41:51;17.00;99.90
26907;DHT22;14472;56.880;16.658;2023-08-30T03:44:16;17.00;99.90
26907;DHT22;14472;56.880;16.658;2023-08-30T03:46:42;17.00;99.90
26907;DHT22;14472;56.880;16.658;2023-08-30T03:49:08;17.00;99.90
26907;DHT22;14472;56.880;16.658;2023-08-30T03:51:33;17.00;99.90
26907;DHT22;14472;56.880;16.658;2023-08-30T03:54:00;17.00;99.90
26907;DHT22;14472;56.880;16.658;2023-08-30T03:56:25;17.00;99.90
26907;DHT22;14472;56.880;16.658;2023-08-30T03:58:51;17.00;99.90
26907;DHT22;14472;56.880;16.658;2023-08-30T04:01:17;17.00;99.90
26907;DHT22;14472;56.880;16.658;2023-08-30T04:03:42;17.00;99.90
26907;DHT22;14472;56.880;16.658;2023-08-30T04:06:08;17.10;99.90
26907;DHT22;14472;56.880;16.658;2023-08-30T04:08:34;17.10;99.90
26907;DHT22;14472;56.880;16.658;2023-08-30T04:11:01;17.10;99.90
26907;DHT22;14472;56.880;16.658;2023-08-30T04:13:27;17.10;99.90
26907;DHT22;14472;56.880;16.658;2023-08-30T04:15:53;17.10;99.90
26907;DHT22;14472;56.880;16.658;2023-08-30T04:18:19;17.10;99.90
26907;DHT22;14472;56.880;16.658;2023-08-30T04:20:45;17.10;99.90
26907;DHT22;14472;56.880;16.658;2023-08-30T04:23:11;17.10;99.90
26907;DHT22;14472;56.880;16.658;2023-08-30T04:25:37;17.10;99.90
26907;DHT22;14472;56.880;16.658;2023-08-30T04:28:03;17.10;99.90
26907;DHT22;14472;56.880;16.658;2023-08-30T04:30:29;17.10;99.90
26907;DHT22;14472;56.880;16.658;2023-08-30T04:32:55;17.10;99.90
26907;DHT22;14472;56.880;16.658;2023-08-30T04:35:20;17.20;99.90
26907;DHT22;14472;56.880;16.658;2023-08-30T04:37:47;17.10;99.90
26907;DHT22;14472;56.880;16.658;2023-08-30T04:40:14;17.10;99.90
26907;DHT22;14472;56.880;16.658;2023-08-30T04:42:40;17.10;99.90
26907;DHT22;14472;56.880;16.658;2023-08-30T04:45:06;17.10;99.90
26907;DHT22;14472;56.880;16.658;2023-08-30T04:47:33;17.20;99.90
26907;DHT22;14472;56.880;16.658;2023-08-30T04:49:59;17.10;99.90
26907;DHT22;14472;56.880;16.658;2023-08-30T04:52:25;17.10;99.90
26907;DHT22;14472;56.880;16.658;2023-08-30T04:54:51;17.10;99.90
26907;DHT22;14472;56.880;16.658;2023-08-30T04:57:17;17.10;99.90
26907;DHT22;14472;56.880;16.658;2023-08-30T04:59:44;17.10;99.90
26907;DHT22;14472;56.880;16.658;2023-08-30T05:02:10;17.10;99.90
26907;DHT22;14472;56.880;16.658;2023-08-30T05:04:36;17.10;99.90
26907;DHT22;14472;56.880;16.658;2023-08-30T05:07:02;17.10;99.90
26907;DHT22;14472;56.880;16.658;2023-08-30T05:09:29;17.10;99.90
26907;DHT22;14472;56.880;16.658;2023-08-30T05:11:55;17.10;99.90
26907;DHT22;14472;56.880;16.658;2023-08-30T05:14:21;17.10;99.90
26907;DHT22;14472;56.880;16.658;2023-08-30T05:16:48;17.10;99.90
26907;DHT22;14472;56.880;16.658;2023-08-30T05:19:14;17.10;99.90
26907;DHT22;14472;56.880;16.658;2023-08-30T05:21:41;17.10;99.90
26907;DHT22;14472;56.880;16.658;2023-08-30T05:24:07;17.10;99.90
26907;DHT22;14472;56.880;16.658;2023-08-30T05:26:33;17.10;99.90
26907;DHT22;14472;56.880;16.658;2023-08-30T05:28:58;17.10;99.90
26907;DHT22;14472;56.880;16.658;2023-08-30T05:31:24;17.10;99.90
26907;DHT22;14472;56.880;16.658;2023-08-30T05:33:50;17.10;99.90
26907;DHT22;14472;56.880;16.658;2023-08-30T05:36:17;17.10;99.90
26907;DHT22;14472;56.880;16.658;2023-08-30T05:38:43;17.20;99.90
26907;DHT22;14472;56.880;16.658;2023-08-30T05:41:08;17.20;99.90
26907;DHT22;14472;56.880;16.658;2023-08-30T05:43:34;17.20;99.90
26907;DHT22;14472;56.880;16.658;2023-08-30T05:46:01;17.20;99.90
26907;DHT22;14472;56.880;16.658;2023-08-30T05:48:30;17.20;99.90
26907;DHT22;14472;56.880;16.658;2023-08-30T05:50:57;17.20;99.90
26907;DHT22;14472;56.880;16.658;2023-08-30T05:53:23;17.20;99.90
26907;DHT22;14472;56.880;16.658;2023-08-30T05:55:48;17.20;99.90
26907;DHT22;14472;56.880;16.658;2023-08-30T05:58:14;17.20;99.90
26907;DHT22;14472;56.880;16.658;2023-08-30T06:00:41;17.30;99.90
26907;DHT22;14472;56.880;16.658;2023-08-30T06:03:07;17.20;99.90
26907;DHT22;14472;56.880;16.658;2023-08-30T06:05:33;17.30;99.90
26907;DHT22;14472;56.880;16.658;2023-08-30T06:07:59;17.30;99.90
26907;DHT22;14472;56.880;16.658;2023-08-30T06:10:26;17.30;99.90
26907;DHT22;14472;56.880;16.658;2023-08-30T06:12:53;17.30;99.90
26907;DHT22;14472;56.880;16.658;2023-08-30T06:15:18;17.30;99.90
26907;DHT22;14472;56.880;16.658;2023-08-30T06:17:44;17.30;99.90
26907;DHT22;14472;56.880;16.658;2023-08-30T06:20:11;17.30;99.90
26907;DHT22;14472;56.880;16.658;2023-08-30T06:22:37;17.40;99.90
26907;DHT22;14472;56.880;16.658;2023-08-30T06:25:03;17.30;99.90
26907;DHT22;14472;56.880;16.658;2023-08-30T06:27:30;17.40;99.90
26907;DHT22;14472;56.880;16.658;2023-08-30T06:29:55;17.40;99.90
26907;DHT22;14472;56.880;16.658;2023-08-30T06:32:21;17.40;99.90
26907;DHT22;14472;56.880;16.658;2023-08-30T06:34:47;17.40;99.90
26907;DHT22;14472;56.880;16.658;2023-08-30T06:37:12;17.40;99.90
26907;DHT22;14472;56.880;16.658;2023-08-30T06:39:38;17.40;99.90
26907;DHT22;14472;56.880;16.658;2023-08-30T06:42:04;17.40;99.90
26907;DHT22;14472;56.880;16.658;2023-08-30T06:44:30;17.40;99.90
26907;DHT22;14472;56.880;16.658;2023-08-30T06:46:58;17.40;99.90
26907;DHT22;14472;56.880;16.658;2023-08-30T06:49:24;17.40;99.90
26907;DHT22;14472;56.880;16.658;2023-08-30T06:51:50;17.40;99.90
26907;DHT22;14472;56.880;16.658;2023-08-30T06:54:16;17.50;99.90
26907;DHT22;14472;56.880;16.658;2023-08-30T06:57:06;17.50;99.90
26907;DHT22;14472;56.880;16.658;2023-08-30T06:59:32;17.50;99.90
26907;DHT22;14472;56.880;16.658;2023-08-30T07:01:58;17.50;99.90
26907;DHT22;14472;56.880;16.658;2023-08-30T07:04:24;17.50;99.90
26907;DHT22;14472;56.880;16.658;2023-08-30T07:06:51;17.50;99.90
26907;DHT22;14472;56.880;16.658;2023-08-30T07:09:16;17.50;99.90
26907;DHT22;14472;56.880;16.658;2023-08-30T07:11:43;17.60;99.90
26907;DHT22;14472;56.880;16.658;2023-08-30T07:14:12;17.60;99.90
26907;DHT22;14472;56.880;16.658;2023-08-30T07:16:39;17.60;99.90
26907;DHT22;14472;56.880;16.658;2023-08-30T07:19:05;17.60;99.90
26907;DHT22;14472;56.880;16.658;2023-08-30T07:21:31;17.60;99.90
26907;DHT22;14472;56.880;16.658;2023-08-30T07:23:57;17.60;99.90
26907;DHT22;14472;56.880;16.658;2023-08-30T07:26:23;17.60;99.90
26907;DHT22;14472;56.880;16.658;2023-08-30T07:28:49;17.60;99.90
26907;DHT22;14472;56.880;16.658;2023-08-30T07:31:14;17.60;99.90
26907;DHT22;14472;56.880;16.658;2023-08-30T07:33:46;17.60;99.90
26907;DHT22;14472;56.880;16.658;2023-08-30T07:36:12;17.60;99.90
26907;DHT22;14472;56.880;16.658;2023-08-30T07:38:38;17.60;99.90
26907;DHT22;14472;56.880;16.658;2023-08-30T07:41:03;17.60;99.90
26907;DHT22;14472;56.880;16.658;2023-08-30T07:43:29;17.60;99.90
26907;DHT22;14472;56.880;16.658;2023-08-30T07:45:55;17.60;99.90
26907;DHT22;14472;56.880;16.658;2023-08-30T07:48:22;17.60;99.90
26907;DHT22;14472;56.880;16.658;2023-08-30T07:50:47;17.60;99.90
26907;DHT22;14472;56.880;16.658;2023-08-30T07:53:13;17.60;99.90
26907;DHT22;14472;56.880;16.658;2023-08-30T07:55:39;17.60;99.90
26907;DHT22;14472;56.880;16.658;2023-08-30T07:58:08;17.60;99.90
26907;DHT22;14472;56.880;16.658;2023-08-30T08:00:35;17.60;99.90
26907;DHT22;14472;56.880;16.658;2023-08-30T08:03:02;17.60;99.90
26907;DHT22;14472;56.880;16.658;2023-08-30T08:05:28;17.60;99.90
26907;DHT22;14472;56.880;16.658;2023-08-30T08:07:54;17.60;99.90
26907;DHT22;14472;56.880;16.658;2023-08-30T08:10:24;17.70;99.90
26907;DHT22;14472;56.880;16.658;2023-08-30T08:12:50;17.60;99.90
26907;DHT22;14472;56.880;16.658;2023-08-30T08:15:16;17.70;99.90
26907;DHT22;14472;56.880;16.658;2023-08-30T08:17:41;17.70;99.90
26907;DHT22;14472;56.880;16.658;2023-08-30T08:20:07;17.70;99.90
26907;DHT22;14472;56.880;16.658;2023-08-30T08:22:33;17.70;99.90
26907;DHT22;14472;56.880;16.658;2023-08-30T08:24:59;17.60;99.90
26907;DHT22;14472;56.880;16.658;2023-08-30T08:27:25;17.60;99.90
26907;DHT22;14472;56.880;16.658;2023-08-30T08:29:51;17.60;99.90
26907;DHT22;14472;56.880;16.658;2023-08-30T08:32:16;17.70;99.90
26907;DHT22;14472;56.880;16.658;2023-08-30T08:34:42;17.70;99.90
26907;DHT22;14472;56.880;16.658;2023-08-30T08:37:08;17.70;99.90
26907;DHT22;14472;56.880;16.658;2023-08-30T08:39:33;17.70;99.90
26907;DHT22;14472;56.880;16.658;2023-08-30T08:42:00;17.70;99.90
26907;DHT22;14472;56.880;16.658;2023-08-30T08:44:31;17.70;99.90
26907;DHT22;14472;56.880;16.658;2023-08-30T08:46:56;17.80;99.90
26907;DHT22;14472;56.880;16.658;2023-08-30T08:49:24;17.80;99.90
26907;DHT22;14472;56.880;16.658;2023-08-30T08:51:53;17.80;99.90
26907;DHT22;14472;56.880;16.658;2023-08-30T08:54:20;17.80;99.90
26907;DHT22;14472;56.880;16.658;2023-08-30T08:56:46;17.90;99.90
26907;DHT22;14472;56.880;16.658;2023-08-30T08:59:12;17.90;99.90
26907;DHT22;14472;56.880;16.658;2023-08-30T09:01:41;17.90;99.90
26907;DHT22;14472;56.880;16.658;2023-08-30T09:04:11;18.00;99.90
26907;DHT22;14472;56.880;16.658;2023-08-30T09:06:38;18.00;99.90
26907;DHT22;14472;56.880;16.658;2023-08-30T09:09:09;18.10;99.90
26907;DHT22;14472;56.880;16.658;2023-08-30T09:11:35;18.10;99.90
26907;DHT22;14472;56.880;16.658;2023-08-30T09:14:00;18.20;99.90
26907;DHT22;14472;56.880;16.658;2023-08-30T09:16:27;18.30;99.90
26907;DHT22;14472;56.880;16.658;2023-08-30T09:19:00;18.30;99.90
26907;DHT22;14472;56.880;16.658;2023-08-30T09:21:27;18.30;99.90
26907;DHT22;14472;56.880;16.658;2023-08-30T09:24:03;18.30;99.90
26907;DHT22;14472;56.880;16.658;2023-08-30T09:26:30;18.40;99.90
26907;DHT22;14472;56.880;16.658;2023-08-30T09:29:06;18.50;99.90
26907;DHT22;14472;56.880;16.658;2023-08-30T09:31:36;18.50;99.90
26907;DHT22;14472;56.880;16.658;2023-08-30T09:34:03;18.60;99.90
26907;DHT22;14472;56.880;16.658;2023-08-30T09:36:36;18.60;99.90
26907;DHT22;14472;56.880;16.658;2023-08-30T09:39:13;18.60;99.90
26907;DHT22;14472;56.880;16.658;2023-08-30T09:41:43;18.70;99.90
26907;DHT22;14472;56.880;16.658;2023-08-30T09:44:19;18.70;99.90
26907;DHT22;14472;56.880;16.658;2023-08-30T09:46:55;18.70;99.90
26907;DHT22;14472;56.880;16.658;2023-08-30T09:49:23;18.80;99.90
26907;DHT22;14472;56.880;16.658;2023-08-30T09:51:51;18.70;99.90
26907;DHT22;14472;56.880;16.658;2023-08-30T09:54:23;18.80;99.90
26907;DHT22;14472;56.880;16.658;2023-08-30T09:56:49;18.80;99.90
26907;DHT22;14472;56.880;16.658;2023-08-30T09:59:18;18.90;99.90
26907;DHT22;14472;56.880;16.658;2023-08-30T10:01:46;18.90;99.90
26907;DHT22;14472;56.880;16.658;2023-08-30T10:04:13;18.90;99.90
26907;DHT22;14472;56.880;16.658;2023-08-30T10:06:40;18.90;99.90
26907;DHT22;14472;56.880;16.658;2023-08-30T10:09:08;18.90;99.90
26907;DHT22;14472;56.880;16.658;2023-08-30T10:11:38;18.90;99.90
26907;DHT22;14472;56.880;16.658;2023-08-30T10:14:08;19.00;99.90
26907;DHT22;14472;56.880;16.658;2023-08-30T10:16:46;19.00;98.30
26907;DHT22;14472;56.880;16.658;2023-08-30T10:19:20;18.90;95.20
26907;DHT22;14472;56.880;16.658;2023-08-30T10:22:03;19.00;95.10
26907;DHT22;14472;56.880;16.658;2023-08-30T10:24:52;19.00;98.40
26907;DHT22;14472;56.880;16.658;2023-08-30T10:27:17;19.00;97.40
26907;DHT22;14472;56.880;16.658;2023-08-30T10:29:44;19.00;99.70
26907;DHT22;14472;56.880;16.658;2023-08-30T10:32:11;19.00;97.30
26907;DHT22;14472;56.880;16.658;2023-08-30T10:34:37;19.00;86.50
26907;DHT22;14472;56.880;16.658;2023-08-30T10:37:07;19.00;89.10
26907;DHT22;14472;56.880;16.658;2023-08-30T10:39:41;19.10;93.30
26907;DHT22;14472;56.880;16.658;2023-08-30T10:42:14;19.10;94.20
26907;DHT22;14472;56.880;16.658;2023-08-30T10:44:59;19.10;91.50
26907;DHT22;14472;56.880;16.658;2023-08-30T10:47:28;19.10;91.50
26907;DHT22;14472;56.880;16.658;2023-08-30T10:49:55;19.10;92.50
26907;DHT22;14472;56.880;16.658;2023-08-30T10:52:22;19.00;94.10
26907;DHT22;14472;56.880;16.658;2023-08-30T10:54:49;19.00;95.80
26907;DHT22;14472;56.880;16.658;2023-08-30T10:57:21;19.00;97.40
26907;DHT22;14472;56.880;16.658;2023-08-30T11:00:18;19.00;98.90
26907;DHT22;14472;56.880;16.658;2023-08-30T11:02:46;19.00;98.10
26907;DHT22;14472;56.880;16.658;2023-08-30T11:05:12;19.00;97.40
26907;DHT22;14472;56.880;16.658;2023-08-30T11:07:37;19.00;97.40
26907;DHT22;14472;56.880;16.658;2023-08-30T11:10:05;19.00;99.00
26907;DHT22;14472;56.880;16.658;2023-08-30T11:12:32;19.00;99.90
26907;DHT22;14472;56.880;16.658;2023-08-30T11:14:57;19.10;99.90
26907;DHT22;14472;56.880;16.658;2023-08-30T11:17:25;19.10;99.90
26907;DHT22;14472;56.880;16.658;2023-08-30T11:19:56;19.10;99.90
26907;DHT22;14472;56.880;16.658;2023-08-30T11:22:23;19.10;99.90
26907;DHT22;14472;56.880;16.658;2023-08-30T11:24:49;19.10;99.90
26907;DHT22;14472;56.880;16.658;2023-08-30T11:27:18;19.10;99.90
26907;DHT22;14472;56.880;16.658;2023-08-30T11:29:44;19.20;99.90
26907;DHT22;14472;56.880;16.658;2023-08-30T11:32:10;19.20;99.90
26907;DHT22;14472;56.880;16.658;2023-08-30T11:34:35;19.20;99.90
26907;DHT22;14472;56.880;16.658;2023-08-30T11:37:01;19.20;99.90
26907;DHT22;14472;56.880;16.658;2023-08-30T11:39:30;19.20;99.90
26907;DHT22;14472;56.880;16.658;2023-08-30T11:41:56;19.20;99.90
26907;DHT22;14472;56.880;16.658;2023-08-30T11:44:28;19.20;99.90
26907;DHT22;14472;56.880;16.658;2023-08-30T11:47:00;19.20;99.90
26907;DHT22;14472;56.880;16.658;2023-08-30T11:49:29;19.20;99.90
26907;DHT22;14472;56.880;16.658;2023-08-30T11:51:55;19.20;99.90
26907;DHT22;14472;56.880;16.658;2023-08-30T11:54:24;19.20;99.90
26907;DHT22;14472;56.880;16.658;2023-08-30T11:56:50;19.10;99.90
26907;DHT22;14472;56.880;16.658;2023-08-30T11:59:20;19.10;99.90
26907;DHT22;14472;56.880;16.658;2023-08-30T12:01:56;19.10;97.40
26907;DHT22;14472;56.880;16.658;2023-08-30T12:04:22;19.10;99.90
26907;DHT22;14472;56.880;16.658;2023-08-30T12:06:51;19.10;99.90
26907;DHT22;14472;56.880;16.658;2023-08-30T12:09:18;19.20;99.90
26907;DHT22;14472;56.880;16.658;2023-08-30T12:11:50;19.10;99.90
26907;DHT22;14472;56.880;16.658;2023-08-30T12:14:16;19.10;99.90
26907;DHT22;14472;56.880;16.658;2023-08-30T12:16:42;19.00;99.90
26907;DHT22;14472;56.880;16.658;2023-08-30T12:19:11;19.00;97.40
26907;DHT22;14472;56.880;16.658;2023-08-30T12:21:44;19.00;95.70
26907;DHT22;14472;56.880;16.658;2023-08-30T12:24:12;19.00;95.90
26907;DHT22;14472;56.880;16.658;2023-08-30T12:26:38;18.90;94.40
26907;DHT22;14472;56.880;16.658;2023-08-30T12:29:05;18.90;93.20
26907;DHT22;14472;56.880;16.658;2023-08-30T12:31:33;18.90;94.40
26907;DHT22;14472;56.880;16.658;2023-08-30T12:33:59;19.00;94.90
26907;DHT22;14472;56.880;16.658;2023-08-30T12:36:25;18.90;97.50
26907;DHT22;14472;56.880;16.658;2023-08-30T12:38:51;18.90;97.60
26907;DHT22;14472;56.880;16.658;2023-08-30T12:41:17;18.90;99.80
26907;DHT22;14472;56.880;16.658;2023-08-30T12:43:43;18.90;99.90
26907;DHT22;14472;56.880;16.658;2023-08-30T12:46:08;18.90;99.90
26907;DHT22;14472;56.880;16.658;2023-08-30T12:48:34;18.90;99.70
26907;DHT22;14472;56.880;16.658;2023-08-30T12:51:00;18.90;99.90
26907;DHT22;14472;56.880;16.658;2023-08-30T12:53:25;19.00;99.90
26907;DHT22;14472;56.880;16.658;2023-08-30T12:55:51;18.90;99.90
26907;DHT22;14472;56.880;16.658;2023-08-30T12:58:17;19.00;99.90
26907;DHT22;14472;56.880;16.658;2023-08-30T13:00:42;19.00;99.90
26907;DHT22;14472;56.880;16.658;2023-08-30T13:03:08;18.90;99.90
26907;DHT22;14472;56.880;16.658;2023-08-30T13:05:34;18.90;97.40
26907;DHT22;14472;56.880;16.658;2023-08-30T13:08:01;18.90;99.30
26907;DHT22;14472;56.880;16.658;2023-08-30T13:10:28;18.90;99.30
26907;DHT22;14472;56.880;16.658;2023-08-30T13:12:53;18.90;98.40
26907;DHT22;14472;56.880;16.658;2023-08-30T13:15:19;18.90;94.80
26907;DHT22;14472;56.880;16.658;2023-08-30T13:17:45;18.90;95.50
26907;DHT22;14472;56.880;16.658;2023-08-30T13:20:10;18.90;96.00
26907;DHT22;14472;56.880;16.658;2023-08-30T13:22:36;18.90;93.70
26907;DHT22;14472;56.880;16.658;2023-08-30T13:25:02;18.90;93.80
26907;DHT22;14472;56.880;16.658;2023-08-30T13:27:29;18.90;94.40
26907;DHT22;14472;56.880;16.658;2023-08-30T13:29:55;18.90;93.40
26907;DHT22;14472;56.880;16.658;2023-08-30T13:32:21;18.90;90.80
26907;DHT22;14472;56.880;16.658;2023-08-30T13:34:47;18.90;90.40
26907;DHT22;14472;56.880;16.658;2023-08-30T13:37:13;18.90;88.40
26907;DHT22;14472;56.880;16.658;2023-08-30T13:39:40;18.90;81.40
26907;DHT22;14472;56.880;16.658;2023-08-30T13:42:06;18.90;80.90
26907;DHT22;14472;56.880;16.658;2023-08-30T13:44:31;18.90;64.50
26907;DHT22;14472;56.880;16.658;2023-08-30T13:46:57;18.90;58.70
26907;DHT22;14472;56.880;16.658;2023-08-30T13:49:23;18.90;51.60
26907;DHT22;14472;56.880;16.658;2023-08-30T13:51:49;18.90;51.20
26907;DHT22;14472;56.880;16.658;2023-08-30T13:54:15;18.90;49.60
26907;DHT22;14472;56.880;16.658;2023-08-30T13:56:41;19.00;59.50
26907;DHT22;14472;56.880;16.658;2023-08-30T13:59:09;19.00;58.70
26907;DHT22;14472;56.880;16.658;2023-08-30T14:01:35;19.10;65.80
26907;DHT22;14472;56.880;16.658;2023-08-30T14:04:01;19.10;71.10
26907;DHT22;14472;56.880;16.658;2023-08-30T14:06:30;19.10;75.80
26907;DHT22;14472;56.880;16.658;2023-08-30T14:08:56;19.10;83.70
26907;DHT22;14472;56.880;16.658;2023-08-30T14:11:22;19.20;81.80
26907;DHT22;14472;56.880;16.658;2023-08-30T14:13:48;19.20;86.80
26907;DHT22;14472;56.880;16.658;2023-08-30T14:16:13;19.30;93.70
26907;DHT22;14472;56.880;16.658;2023-08-30T14:18:39;19.30;94.70
26907;DHT22;14472;56.880;16.658;2023-08-30T14:21:05;19.30;90.60
26907;DHT22;14472;56.880;16.658;2023-08-30T14:23:31;19.40;92.50
26907;DHT22;14472;56.880;16.658;2023-08-30T14:28:23;19.40;80.10
26907;DHT22;14472;56.880;16.658;2023-08-30T14:30:49;19.40;71.90
26907;DHT22;14472;56.880;16.658;2023-08-30T14:33:15;19.40;73.20
26907;DHT22;14472;56.880;16.658;2023-08-30T14:35:44;19.40;73.90
26907;DHT22;14472;56.880;16.658;2023-08-30T14:38:10;19.40;67.80
26907;DHT22;14472;56.880;16.658;2023-08-30T14:40:36;19.40;66.10
26907;DHT22;14472;56.880;16.658;2023-08-30T14:43:04;19.40;74.80
26907;DHT22;14472;56.880;16.658;2023-08-30T14:45:31;19.40;73.20
26907;DHT22;14472;56.880;16.658;2023-08-30T14:47:57;19.30;70.30
26907;DHT22;14472;56.880;16.658;2023-08-30T14:50:23;19.30;73.10
26907;DHT22;14472;56.880;16.658;2023-08-30T14:52:48;19.30;68.60
26907;DHT22;14472;56.880;16.658;2023-08-30T14:55:16;19.20;72.40
26907;DHT22;14472;56.880;16.658;2023-08-30T14:57:41;19.20;77.50
26907;DHT22;14472;56.880;16.658;2023-08-30T15:00:07;19.20;73.00
26907;DHT22;14472;56.880;16.658;2023-08-30T15:02:33;19.20;78.80
26907;DHT22;14472;56.880;16.658;2023-08-30T15:04:59;19.20;65.90
26907;DHT22;14472;56.880;16.658;2023-08-30T15:07:25;19.20;66.30
26907;DHT22;14472;56.880;16.658;2023-08-30T15:09:51;19.20;69.50
26907;DHT22;14472;56.880;16.658;2023-08-30T15:12:16;19.20;70.00
26907;DHT22;14472;56.880;16.658;2023-08-30T15:14:42;19.10;65.90
26907;DHT22;14472;56.880;16.658;2023-08-30T15:17:09;19.10;71.50
26907;DHT22;14472;56.880;16.658;2023-08-30T15:19:35;19.10;71.80